createdAt,value
2024-02-04T00:00:19.753Z,40
2024-02-04T00:02:50.547Z,36
2024-02-04T00:05:21.008Z,36
2024-02-04T00:07:52.666Z,36
2024-02-04T00:10:26.672Z,36
2024-02-04T00:12:56.875Z,36
2024-02-04T00:15:27.771Z,40
2024-02-04T00:17:59.914Z,36
2024-02-04T00:20:30.118Z,36
2024-02-04T00:23:00.298Z,35
2024-02-04T00:25:31.143Z,34
2024-02-04T00:28:03.372Z,35
2024-02-04T00:30:33.963Z,33
2024-02-04T00:33:05.120Z,32
2024-02-04T00:35:35.578Z,34
2024-02-04T00:38:08.841Z,32
2024-02-04T00:40:39.337Z,32
2024-02-04T00:43:10.354Z,32
2024-02-04T00:45:41.265Z,36
2024-02-04T00:48:14.262Z,32
2024-02-04T00:50:45.078Z,36
2024-02-04T00:53:15.193Z,32
2024-02-04T00:55:52.716Z,32
2024-02-04T00:58:24.419Z,32
2024-02-04T01:01:05.060Z,32
2024-02-04T01:03:36.220Z,32
2024-02-04T01:06:06.765Z,32
2024-02-04T01:08:37.917Z,32
2024-02-04T01:11:14.933Z,32
2024-02-04T01:13:48.495Z,32
2024-02-04T01:16:18.884Z,28
2024-02-04T01:18:57.173Z,32
2024-02-04T01:21:27.448Z,32
2024-02-04T01:24:01.169Z,30
2024-02-04T01:26:32.070Z,32
2024-02-04T01:29:02.864Z,30
2024-02-04T01:31:33.267Z,30
2024-02-04T01:34:03.824Z,30
2024-02-04T01:36:35.142Z,31
2024-02-04T01:39:05.710Z,31
2024-02-04T01:41:36.404Z,36
2024-02-04T01:44:08.504Z,36
2024-02-04T01:46:40.499Z,32
2024-02-04T01:49:10.704Z,32
2024-02-04T01:51:41.758Z,28
2024-02-04T01:54:15.207Z,29
2024-02-04T01:56:47.751Z,32
2024-02-04T01:59:18.243Z,32
2024-02-04T02:01:48.334Z,30
2024-02-04T02:04:21.676Z,32
2024-02-04T02:06:53.678Z,30
2024-02-04T02:09:24.709Z,33
2024-02-04T02:11:55.526Z,35
2024-02-04T02:14:27.441Z,39
2024-02-04T02:16:58.074Z,36
2024-02-04T02:19:29.813Z,32
2024-02-04T02:22:00.292Z,32
2024-02-04T02:24:40.215Z,32
2024-02-04T02:27:10.990Z,30
2024-02-04T02:29:44.868Z,32
2024-02-04T02:32:17.969Z,32
2024-02-04T02:34:52.034Z,30
2024-02-04T02:37:22.990Z,32
2024-02-04T02:39:53.890Z,31
2024-02-04T02:42:25.116Z,32
2024-02-04T02:44:56.031Z,28
2024-02-04T02:47:27.125Z,30
2024-02-04T02:49:57.237Z,32
2024-02-04T02:52:28.266Z,32
2024-02-04T02:54:59.094Z,32
2024-02-04T02:57:32.043Z,28
2024-02-04T03:00:02.884Z,32
2024-02-04T03:02:36.391Z,33
2024-02-04T03:05:06.912Z,32
2024-02-04T03:07:38.187Z,31
2024-02-04T03:10:18.724Z,29
2024-02-04T03:12:50.970Z,28
2024-02-04T03:15:21.270Z,28
2024-02-04T03:17:52.757Z,28
2024-02-04T03:20:23.792Z,27
2024-02-04T03:23:03.337Z,27
2024-02-04T03:25:34.228Z,28
2024-02-04T03:28:05.379Z,25
2024-02-04T03:30:35.555Z,28
2024-02-04T03:33:08.076Z,28
2024-02-04T03:35:38.347Z,32
2024-02-04T03:38:09.231Z,32
2024-02-04T03:40:45.555Z,40
2024-02-04T03:43:20.061Z,36
2024-02-04T03:45:51.104Z,40
2024-02-04T03:48:22.417Z,37
2024-02-04T03:50:52.600Z,36
2024-02-04T03:53:23.521Z,40
2024-02-04T03:55:54.065Z,40
2024-02-04T03:58:25.161Z,41
2024-02-04T04:00:55.841Z,40
2024-02-04T04:03:27.474Z,40
2024-02-04T04:05:58.414Z,40
2024-02-04T04:08:30.230Z,39
2024-02-04T04:11:01.133Z,36
2024-02-04T04:13:31.549Z,40
2024-02-04T04:16:03.458Z,38
2024-02-04T04:18:34.180Z,40
2024-02-04T04:21:04.825Z,38
2024-02-04T04:23:35.633Z,36
2024-02-04T04:26:06.403Z,37
2024-02-04T04:28:40.910Z,38
2024-02-04T04:31:12.193Z,38
2024-02-04T04:33:43.240Z,36
2024-02-04T04:36:14.386Z,36
2024-02-04T04:38:51.294Z,36
2024-02-04T04:41:23.104Z,36
2024-02-04T04:43:56.362Z,34
2024-02-04T04:46:27.142Z,36
2024-02-04T04:48:58.473Z,36
2024-02-04T04:51:29.511Z,36
2024-02-04T04:54:00.530Z,36
2024-02-04T04:56:30.986Z,38
2024-02-04T04:59:01.902Z,36
2024-02-04T05:01:40.447Z,37
2024-02-04T05:04:14.258Z,36
2024-02-04T05:06:45.550Z,40
2024-02-04T05:09:16.485Z,37
2024-02-04T05:11:50.682Z,36
2024-02-04T05:14:21.451Z,36
2024-02-04T05:16:52.218Z,32
2024-02-04T05:19:23.153Z,32
2024-02-04T05:21:53.723Z,32
2024-02-04T05:24:33.047Z,32
2024-02-04T05:27:03.933Z,36
2024-02-04T05:29:35.188Z,36
2024-02-04T05:32:10.813Z,40
2024-02-04T05:34:42.071Z,40
2024-02-04T05:37:12.622Z,41
2024-02-04T05:39:43.217Z,40
2024-02-04T05:42:17.939Z,40
2024-02-04T05:44:48.731Z,40
2024-02-04T05:47:20.201Z,39
2024-02-04T05:49:51.319Z,36
2024-02-04T05:52:25.413Z,36
2024-02-04T05:54:56.924Z,36
2024-02-04T05:57:31.410Z,36
2024-02-04T06:00:06.810Z,36
2024-02-04T06:02:41.780Z,36
2024-02-04T06:05:12.420Z,40
2024-02-04T06:07:46.592Z,36
2024-02-04T06:10:17.437Z,40
2024-02-04T06:12:50.630Z,37
2024-02-04T06:15:21.651Z,40
2024-02-04T06:17:56.718Z,44
2024-02-04T06:20:27.025Z,39
2024-02-04T06:22:57.223Z,40
2024-02-04T06:25:31.054Z,40
2024-02-04T06:28:01.611Z,38
2024-02-04T06:30:31.810Z,40
2024-02-04T06:33:02.518Z,40
2024-02-04T06:35:33.388Z,40
2024-02-04T06:38:04.093Z,40
2024-02-04T06:40:37.607Z,40
2024-02-04T06:43:07.810Z,41
2024-02-04T06:45:41.383Z,40
2024-02-04T06:48:13.797Z,40
2024-02-04T06:50:44.604Z,44
2024-02-04T06:53:14.816Z,40
2024-02-04T06:55:45.730Z,40
2024-02-04T06:58:16.620Z,40
2024-02-04T07:00:49.210Z,36
2024-02-04T07:03:19.095Z,36
2024-02-04T07:05:50.081Z,36
2024-02-04T07:08:20.570Z,32
2024-02-04T07:10:50.845Z,32
2024-02-04T07:13:21.533Z,32
2024-02-04T07:15:52.440Z,40
2024-02-04T07:18:26.682Z,54
2024-02-04T07:21:04.041Z,51
2024-02-04T07:23:35.016Z,46
2024-02-04T07:26:06.089Z,45
2024-02-04T07:28:40.010Z,48
2024-02-04T07:31:11.079Z,52
2024-02-04T07:33:43.304Z,48
2024-02-04T07:36:13.701Z,49
2024-02-04T07:38:44.751Z,52
2024-02-04T07:41:15.813Z,52
2024-02-04T07:43:46.200Z,48
2024-02-04T07:46:18.619Z,50
2024-02-04T07:48:49.670Z,49
2024-02-04T07:51:21.781Z,55
2024-02-04T07:53:53.615Z,57
2024-02-04T07:56:24.397Z,69
2024-02-04T07:58:56.258Z,68
2024-02-04T08:01:29.021Z,60
2024-02-04T08:04:04.090Z,50
2024-02-04T08:06:34.488Z,46
2024-02-04T08:09:06.815Z,46
2024-02-04T08:11:38.126Z,45
2024-02-04T08:14:12.652Z,44
2024-02-04T08:16:44.212Z,48
2024-02-04T08:19:16.901Z,40
2024-02-04T08:21:51.760Z,47
2024-02-04T08:24:22.003Z,44
2024-02-04T08:26:52.213Z,44
2024-02-04T08:29:22.984Z,45
2024-02-04T08:31:53.517Z,42
2024-02-04T08:34:24.115Z,37
2024-02-04T08:37:00.857Z,37
2024-02-04T08:39:29.454Z,40
2024-02-04T08:41:59.649Z,40
2024-02-04T08:50:32.896Z,36
2024-02-04T08:53:18.690Z,36
2024-02-04T08:55:54.271Z,36
2024-02-04T08:58:24.646Z,38
2024-02-04T09:00:54.763Z,36
2024-02-04T09:03:31.430Z,41
2024-02-04T09:06:02.378Z,48
2024-02-04T09:08:32.984Z,44
2024-02-04T09:11:03.840Z,49
2024-02-04T09:13:36.341Z,48
2024-02-04T09:16:06.695Z,40
2024-02-04T09:18:37.708Z,40
2024-02-04T09:21:15.962Z,36
2024-02-04T09:23:47.417Z,44
2024-02-04T09:26:19.435Z,46
2024-02-04T09:28:50.303Z,36
2024-02-04T09:31:29.926Z,36
2024-02-04T09:33:59.874Z,35
2024-02-04T09:36:31.107Z,28
2024-02-04T09:39:01.935Z,24
2024-02-04T09:41:32.366Z,16
2024-02-04T09:44:05.772Z,20
2024-02-04T09:46:39.780Z,17
2024-02-04T09:49:10.851Z,16
2024-02-04T09:51:41.829Z,20
2024-02-04T09:54:13.540Z,20
2024-02-04T09:56:44.156Z,21
2024-02-04T09:59:14.398Z,24
2024-02-04T10:01:44.778Z,24
2024-02-04T10:04:15.081Z,23
2024-02-04T10:06:46.033Z,24
2024-02-04T10:09:19.005Z,20
2024-02-04T10:11:52.601Z,24
2024-02-04T10:14:23.806Z,16
2024-02-04T10:16:54.672Z,12
2024-02-04T10:19:26.650Z,12
2024-02-04T10:22:03.073Z,10
2024-02-04T10:24:37.202Z,8
2024-02-04T10:27:13.607Z,9
2024-02-04T10:29:45.840Z,8
2024-02-04T10:32:21.851Z,12
2024-02-04T10:34:51.068Z,8
2024-02-04T10:37:23.103Z,12
2024-02-04T10:39:58.872Z,12
2024-02-04T10:42:34.081Z,12
2024-02-04T10:45:09.680Z,12
2024-02-04T10:47:43.508Z,14
2024-02-04T10:50:14.403Z,12
2024-02-04T10:52:48.895Z,12
2024-02-04T10:55:19.247Z,12
2024-02-04T10:57:49.835Z,12
2024-02-04T11:00:20.793Z,16
2024-02-04T11:05:26.832Z,16
2024-02-04T11:07:58.075Z,18
2024-02-04T11:10:28.377Z,24
2024-02-04T11:12:59.573Z,16
2024-02-04T11:15:30.188Z,20
2024-02-04T11:18:03.666Z,28
2024-02-04T11:20:37.681Z,20
2024-02-04T11:23:09.573Z,16
2024-02-04T11:25:44.815Z,16
2024-02-04T11:28:16.231Z,15
2024-02-04T11:30:48.234Z,16
2024-02-04T11:33:19.546Z,20
2024-02-04T11:35:56.447Z,16
2024-02-04T11:38:27.120Z,16
2024-02-04T11:41:03.093Z,18
2024-02-04T11:43:37.000Z,20
2024-02-04T11:46:08.411Z,16
2024-02-04T11:48:37.123Z,20
2024-02-04T11:51:07.965Z,16
2024-02-04T11:53:38.275Z,20
2024-02-04T11:56:08.614Z,16
2024-02-04T11:58:39.056Z,12
2024-02-04T12:01:10.331Z,8
2024-02-04T12:03:42.260Z,8
2024-02-04T12:06:12.343Z,4
2024-02-04T12:08:42.746Z,7
2024-02-04T12:11:17.555Z,8
2024-02-04T12:13:47.635Z,8
2024-02-04T12:16:22.334Z,4
2024-02-04T12:18:55.038Z,4
2024-02-04T12:21:28.480Z,8
2024-02-04T12:23:58.826Z,4
2024-02-04T12:26:29.247Z,4
2024-02-04T12:28:59.409Z,4
2024-02-04T12:31:31.355Z,4
2024-02-04T12:34:01.890Z,8
2024-02-04T12:36:36.421Z,7
2024-02-04T12:39:07.514Z,4
2024-02-04T12:41:37.881Z,4
2024-02-04T12:44:13.269Z,8
2024-02-04T12:46:50.696Z,4
2024-02-04T12:49:21.259Z,4
2024-02-04T12:51:50.820Z,4
2024-02-04T12:54:27.057Z,4
2024-02-04T12:56:59.010Z,4
2024-02-04T12:59:31.074Z,4
2024-02-04T13:02:04.912Z,4
2024-02-04T13:04:36.950Z,4
2024-02-04T13:07:07.117Z,4
2024-02-04T13:09:41.296Z,4
2024-02-04T13:12:15.556Z,4
2024-02-04T13:14:45.769Z,4
2024-02-04T13:17:16.135Z,4
2024-02-04T13:19:47.177Z,4
2024-02-04T13:22:18.228Z,4
2024-02-04T13:24:48.784Z,4
2024-02-04T13:27:19.399Z,11
2024-02-04T13:29:50.191Z,8
2024-02-04T13:32:22.199Z,4
2024-02-04T13:35:02.803Z,8
2024-02-04T13:37:34.116Z,4
2024-02-04T13:40:06.391Z,4
2024-02-04T13:42:37.322Z,4
2024-02-04T13:45:11.416Z,4
2024-02-04T13:47:42.983Z,4
2024-02-04T13:50:14.659Z,4
2024-02-04T13:52:45.944Z,4
2024-02-04T13:55:16.184Z,4
2024-02-04T13:57:47.361Z,8
2024-02-04T14:00:18.178Z,8
2024-02-04T14:02:48.589Z,8
2024-02-04T14:05:19.069Z,8
2024-02-04T14:07:50.726Z,8
2024-02-04T14:10:27.288Z,8
2024-02-04T14:12:59.878Z,12
2024-02-04T14:15:30.020Z,12
2024-02-04T14:18:00.452Z,8
2024-02-04T14:20:31.530Z,12
2024-02-04T14:23:02.465Z,12
2024-02-04T14:25:34.727Z,8
2024-02-04T14:28:06.493Z,10
2024-02-04T14:30:39.092Z,12
2024-02-04T14:33:09.569Z,12
2024-02-04T14:35:43.849Z,16
2024-02-04T14:38:15.225Z,12
2024-02-04T14:40:46.546Z,12
2024-02-04T14:43:17.490Z,12
2024-02-04T14:45:51.706Z,12
2024-02-04T14:48:22.736Z,12
2024-02-04T14:50:57.171Z,14
2024-02-04T14:53:27.877Z,12
2024-02-04T14:55:58.319Z,12
2024-02-04T14:58:31.900Z,16
2024-02-04T15:01:12.306Z,12
2024-02-04T15:03:51.888Z,16
2024-02-04T15:06:23.813Z,16
2024-02-04T15:08:53.886Z,16
2024-02-04T15:11:25.042Z,12
2024-02-04T15:13:55.618Z,16
2024-02-04T15:19:06.099Z,16
2024-02-04T15:21:37.281Z,16
2024-02-04T15:24:07.801Z,19
2024-02-04T15:26:38.930Z,16
2024-02-04T15:29:13.848Z,16
2024-02-04T15:31:44.576Z,16
2024-02-04T15:34:16.129Z,16
2024-02-04T15:36:55.279Z,16
2024-02-04T15:39:34.995Z,20
2024-02-04T15:42:07.845Z,20
2024-02-04T15:44:44.034Z,18
2024-02-04T15:47:14.794Z,23
2024-02-04T15:49:44.257Z,20
2024-02-04T15:52:14.468Z,24
2024-02-04T15:54:44.613Z,28
2024-02-04T15:57:15.183Z,29
2024-02-04T15:59:45.288Z,28
2024-02-04T16:02:24.814Z,28
2024-02-04T16:04:56.116Z,28
2024-02-04T16:07:26.334Z,26
2024-02-04T16:09:59.394Z,24
2024-02-04T16:12:29.663Z,27
2024-02-04T16:14:59.679Z,27
2024-02-04T16:17:31.967Z,24
2024-02-04T16:20:04.852Z,26
2024-02-04T16:22:39.200Z,26
2024-02-04T16:25:09.879Z,24
2024-02-04T16:27:43.858Z,23
2024-02-04T16:30:14.327Z,24
2024-02-04T16:32:51.836Z,24
2024-02-04T16:35:21.614Z,20
2024-02-04T16:37:52.106Z,20
2024-02-04T16:40:25.639Z,20
2024-02-04T16:42:55.648Z,24
2024-02-04T16:45:26.461Z,20
2024-02-04T16:47:57.419Z,24
2024-02-04T16:50:30.153Z,21
2024-02-04T16:53:00.507Z,20
2024-02-04T16:55:44.967Z,20
2024-02-04T16:58:15.154Z,24
2024-02-04T17:00:49.312Z,32
2024-02-04T17:03:19.878Z,32
2024-02-04T17:05:55.425Z,28
2024-02-04T17:08:28.228Z,28
2024-02-04T17:10:59.481Z,28
2024-02-04T17:13:29.960Z,31
2024-02-04T17:16:00.673Z,30
2024-02-04T17:18:32.090Z,28
2024-02-04T17:21:07.683Z,28
2024-02-04T17:23:38.452Z,28
2024-02-04T17:26:11.691Z,28
2024-02-04T17:28:41.812Z,28
2024-02-04T17:31:17.165Z,28
2024-02-04T17:33:49.408Z,36
2024-02-04T17:36:19.539Z,56
2024-02-04T17:38:48.064Z,60
2024-02-04T17:41:21.370Z,60
2024-02-04T17:43:51.600Z,59
2024-02-04T17:46:21.733Z,57
2024-02-04T17:48:52.149Z,56
2024-02-04T17:51:26.745Z,50
2024-02-04T17:53:57.460Z,48
2024-02-04T17:56:33.283Z,48
2024-02-04T17:59:03.982Z,44
2024-02-04T18:01:37.414Z,43
2024-02-04T18:04:05.975Z,36
2024-02-04T18:06:36.192Z,32
2024-02-04T18:09:08.394Z,28
2024-02-04T18:11:41.867Z,28
2024-02-04T18:14:13.162Z,28
2024-02-04T18:16:46.770Z,28
2024-02-04T18:19:17.038Z,28
2024-02-04T18:21:57.451Z,24
2024-02-04T18:24:32.939Z,27
2024-02-04T18:27:04.366Z,24
2024-02-04T18:29:34.377Z,36
2024-02-04T18:32:06.571Z,49
2024-02-04T18:34:37.165Z,44
2024-02-04T18:37:09.300Z,36
2024-02-04T18:39:40.221Z,32
2024-02-04T18:42:09.094Z,32
2024-02-04T18:44:39.008Z,32
2024-02-04T18:47:09.881Z,36
2024-02-04T18:49:40.469Z,35
2024-02-04T18:52:14.976Z,36
2024-02-04T18:54:47.339Z,36
2024-02-04T18:57:21.728Z,40
2024-02-04T18:59:52.038Z,36
2024-02-04T19:02:20.815Z,40
2024-02-04T19:05:02.906Z,51
2024-02-04T19:07:34.086Z,60
2024-02-04T19:10:07.472Z,60
2024-02-04T19:12:38.268Z,54
2024-02-04T19:15:08.321Z,55
2024-02-04T19:17:39.730Z,52
2024-02-04T19:20:08.245Z,56
2024-02-04T19:22:38.956Z,52
2024-02-04T19:25:09.213Z,72
2024-02-04T19:27:39.908Z,76
2024-02-04T19:30:11.019Z,68
2024-02-04T19:32:41.725Z,69
2024-02-04T19:35:18.717Z,55
2024-02-04T19:37:48.728Z,62
2024-02-04T19:40:22.534Z,67
2024-02-04T19:42:56.043Z,76
2024-02-04T19:45:26.518Z,79
2024-02-04T19:47:56.938Z,80
2024-02-04T19:50:26.978Z,72
2024-02-04T19:52:57.249Z,72
2024-02-04T19:55:25.884Z,71
2024-02-04T19:58:03.153Z,64
2024-02-04T20:00:35.199Z,64
2024-02-04T20:03:05.678Z,69
2024-02-04T20:05:36.919Z,60
2024-02-04T20:08:13.623Z,67
2024-02-04T20:10:46.691Z,72
2024-02-04T20:13:21.602Z,76
2024-02-04T20:15:55.492Z,79
2024-02-04T20:18:25.365Z,83
2024-02-04T20:20:56.946Z,78
2024-02-04T20:23:27.116Z,76
2024-02-04T20:26:07.367Z,80
2024-02-04T20:28:41.859Z,73
2024-02-04T20:31:17.244Z,78
2024-02-04T20:33:47.778Z,76
2024-02-04T20:36:20.910Z,79
2024-02-04T20:38:50.958Z,88
2024-02-04T20:41:21.478Z,86
2024-02-04T20:43:53.210Z,82
2024-02-04T20:46:24.167Z,92
2024-02-04T20:49:02.425Z,88
2024-02-04T20:51:33.090Z,83
2024-02-04T20:54:06.939Z,84
2024-02-04T20:56:37.988Z,80
2024-02-04T20:59:12.572Z,77
2024-02-04T21:01:50.670Z,78
2024-02-04T21:04:28.244Z,81
2024-02-04T21:06:58.346Z,80
2024-02-04T21:09:29.704Z,81
2024-02-04T21:12:00.334Z,84
2024-02-04T21:14:31.269Z,80
2024-02-04T21:17:03.681Z,76
2024-02-04T21:19:37.456Z,84
2024-02-04T21:22:09.656Z,81
2024-02-04T21:24:44.495Z,68
2024-02-04T21:27:19.555Z,64
2024-02-04T21:29:49.674Z,57
2024-02-04T21:32:20.616Z,62
2024-02-04T21:34:51.991Z,61
2024-02-04T21:37:28.057Z,66
2024-02-04T21:39:58.628Z,66
2024-02-04T21:42:29.388Z,70
2024-02-04T21:44:59.367Z,74
2024-02-04T21:47:28.416Z,79
2024-02-04T21:50:03.552Z,78
2024-02-04T21:52:36.141Z,79
2024-02-04T21:55:06.994Z,75
2024-02-04T21:57:38.389Z,75
2024-02-04T22:00:08.842Z,75
2024-02-04T22:02:39.735Z,69
2024-02-04T22:05:13.225Z,68
2024-02-04T22:07:48.049Z,66
2024-02-04T22:10:22.365Z,68
2024-02-04T22:12:54.531Z,68
2024-02-04T22:15:28.535Z,72
2024-02-04T22:18:03.280Z,67
2024-02-04T22:20:38.943Z,67
2024-02-04T22:23:10.213Z,60
2024-02-04T22:25:40.828Z,66
2024-02-04T22:28:12.967Z,68
2024-02-04T22:30:44.219Z,68
2024-02-04T22:33:17.298Z,68
2024-02-04T22:35:46.180Z,67
2024-02-04T22:38:20.648Z,56
2024-02-04T22:40:51.632Z,56
2024-02-04T22:43:21.903Z,61
2024-02-04T22:46:02.525Z,60
2024-02-04T22:48:33.277Z,59
2024-02-04T22:51:04.794Z,60
2024-02-04T22:53:33.582Z,54
2024-02-04T22:56:09.444Z,56
2024-02-04T22:58:40.161Z,55
2024-02-04T23:01:11.128Z,51
2024-02-04T23:03:41.287Z,46
2024-02-04T23:06:17.664Z,44
2024-02-04T23:08:46.481Z,48
2024-02-04T23:11:16.608Z,48
2024-02-04T23:13:47.601Z,52
2024-02-04T23:16:18.247Z,56
2024-02-04T23:18:48.719Z,53
2024-02-04T23:21:22.786Z,50
2024-02-04T23:23:54.735Z,44
2024-02-04T23:26:26.661Z,44
2024-02-04T23:29:02.313Z,44
2024-02-04T23:31:35.394Z,42
2024-02-04T23:34:07.152Z,44
2024-02-04T23:36:37.906Z,42
2024-02-04T23:39:09.741Z,46
2024-02-04T23:41:40.928Z,47
2024-02-04T23:44:14.396Z,52
2024-02-04T23:46:46.054Z,64
2024-02-04T23:49:17.255Z,58
2024-02-04T23:51:53.050Z,60
2024-02-04T23:54:24.518Z,60
2024-02-04T23:57:04.872Z,60
2024-02-04T23:59:35.532Z,60
